sensor_id;sensor_type;location;lat;lon;timestamp;P1;durP1;ratioP1;P2;durP2;ratioP2
21569;SDS011;57598;50.888;4.746;2022-08-06T00:02:19;24.98;;;23.58;;
21569;SDS011;57598;50.888;4.746;2022-08-06T00:04:48;25.20;;;23.80;;
21569;SDS011;57598;50.888;4.746;2022-08-06T00:07:16;25.52;;;24.13;;
21569;SDS011;57598;50.888;4.746;2022-08-06T00:09:43;25.45;;;24.05;;
21569;SDS011;57598;50.888;4.746;2022-08-06T00:12:11;25.20;;;23.80;;
21569;SDS011;57598;50.888;4.746;2022-08-06T00:14:38;24.98;;;23.58;;
21569;SDS011;57598;50.888;4.746;2022-08-06T00:17:05;25.13;;;23.73;;
21569;SDS011;57598;50.888;4.746;2022-08-06T00:19:33;25.10;;;23.70;;
21569;SDS011;57598;50.888;4.746;2022-08-06T00:22:00;25.35;;;23.95;;
21569;SDS011;57598;50.888;4.746;2022-08-06T00:24:27;24.95;;;23.55;;
21569;SDS011;57598;50.888;4.746;2022-08-06T00:26:54;25.25;;;23.85;;
21569;SDS011;57598;50.888;4.746;2022-08-06T00:29:21;25.02;;;23.63;;
21569;SDS011;57598;50.888;4.746;2022-08-06T00:31:48;26.08;;;24.58;;
21569;SDS011;57598;50.888;4.746;2022-08-06T00:34:15;26.15;;;24.65;;
21569;SDS011;57598;50.888;4.746;2022-08-06T00:36:44;26.23;;;24.73;;
21569;SDS011;57598;50.888;4.746;2022-08-06T00:39:11;26.23;;;24.73;;
21569;SDS011;57598;50.888;4.746;2022-08-06T00:41:38;26.15;;;24.65;;
21569;SDS011;57598;50.888;4.746;2022-08-06T00:44:05;28.73;;;25.52;;
21569;SDS011;57598;50.888;4.746;2022-08-06T00:46:32;26.70;;;25.20;;
21569;SDS011;57598;50.888;4.746;2022-08-06T00:48:59;25.90;;;24.40;;
21569;SDS011;57598;50.888;4.746;2022-08-06T00:51:26;26.83;;;25.33;;
21569;SDS011;57598;50.888;4.746;2022-08-06T00:53:55;26.90;;;25.40;;
21569;SDS011;57598;50.888;4.746;2022-08-06T00:56:21;26.60;;;25.10;;
21569;SDS011;57598;50.888;4.746;2022-08-06T00:58:48;26.80;;;25.30;;
21569;SDS011;57598;50.888;4.746;2022-08-06T01:01:15;26.70;;;25.20;;
21569;SDS011;57598;50.888;4.746;2022-08-06T01:03:42;26.73;;;25.23;;
21569;SDS011;57598;50.888;4.746;2022-08-06T01:06:09;26.95;;;25.45;;
21569;SDS011;57598;50.888;4.746;2022-08-06T01:08:36;26.98;;;25.48;;
21569;SDS011;57598;50.888;4.746;2022-08-06T01:11:05;27.00;;;25.50;;
21569;SDS011;57598;50.888;4.746;2022-08-06T01:13:32;27.63;;;26.02;;
21569;SDS011;57598;50.888;4.746;2022-08-06T01:16:03;27.63;;;26.02;;
21569;SDS011;57598;50.888;4.746;2022-08-06T01:18:37;27.20;;;25.70;;
21569;SDS011;57598;50.888;4.746;2022-08-06T01:21:12;26.67;;;25.17;;
21569;SDS011;57598;50.888;4.746;2022-08-06T01:23:51;26.80;;;25.30;;
21569;SDS011;57598;50.888;4.746;2022-08-06T01:26:37;28.13;;;26.52;;
21569;SDS011;57598;50.888;4.746;2022-08-06T01:29:11;27.63;;;26.02;;
21569;SDS011;57598;50.888;4.746;2022-08-06T01:31:45;27.60;;;26.00;;
21569;SDS011;57598;50.888;4.746;2022-08-06T01:34:16;27.83;;;26.23;;
21569;SDS011;57598;50.888;4.746;2022-08-06T01:36:48;27.80;;;26.20;;
21569;SDS011;57598;50.888;4.746;2022-08-06T01:39:19;28.40;;;26.80;;
21569;SDS011;57598;50.888;4.746;2022-08-06T01:41:51;27.73;;;26.13;;
21569;SDS011;57598;50.888;4.746;2022-08-06T01:44:22;28.20;;;26.60;;
21569;SDS011;57598;50.888;4.746;2022-08-06T01:46:53;28.52;;;26.92;;
21569;SDS011;57598;50.888;4.746;2022-08-06T01:49:25;27.80;;;26.20;;
21569;SDS011;57598;50.888;4.746;2022-08-06T01:51:56;28.50;;;26.90;;
21569;SDS011;57598;50.888;4.746;2022-08-06T01:54:25;27.55;;;25.95;;
21569;SDS011;57598;50.888;4.746;2022-08-06T01:56:55;28.40;;;26.80;;
21569;SDS011;57598;50.888;4.746;2022-08-06T01:59:26;28.30;;;26.70;;
21569;SDS011;57598;50.888;4.746;2022-08-06T02:01:57;28.02;;;26.42;;
21569;SDS011;57598;50.888;4.746;2022-08-06T02:04:27;29.65;;;27.88;;
21569;SDS011;57598;50.888;4.746;2022-08-06T02:06:59;28.42;;;26.83;;
21569;SDS011;57598;50.888;4.746;2022-08-06T02:09:29;28.23;;;26.63;;
21569;SDS011;57598;50.888;4.746;2022-08-06T02:11:59;29.10;;;27.40;;
21569;SDS011;57598;50.888;4.746;2022-08-06T02:14:31;28.92;;;27.25;;
21569;SDS011;57598;50.888;4.746;2022-08-06T02:17:01;29.23;;;27.52;;
21569;SDS011;57598;50.888;4.746;2022-08-06T02:19:29;28.35;;;26.75;;
21569;SDS011;57598;50.888;4.746;2022-08-06T02:21:58;28.83;;;27.23;;
21569;SDS011;57598;50.888;4.746;2022-08-06T02:24:28;29.50;;;27.80;;
21569;SDS011;57598;50.888;4.746;2022-08-06T02:26:56;28.65;;;27.05;;
21569;SDS011;57598;50.888;4.746;2022-08-06T02:29:26;28.55;;;26.95;;
21569;SDS011;57598;50.888;4.746;2022-08-06T02:31:56;28.13;;;26.52;;
21569;SDS011;57598;50.888;4.746;2022-08-06T02:34:23;29.00;;;27.30;;
21569;SDS011;57598;50.888;4.746;2022-08-06T02:36:52;28.10;;;26.50;;
21569;SDS011;57598;50.888;4.746;2022-08-06T02:39:24;28.52;;;26.92;;
21569;SDS011;57598;50.888;4.746;2022-08-06T02:41:54;28.42;;;26.83;;
21569;SDS011;57598;50.888;4.746;2022-08-06T02:44:30;28.10;;;26.50;;
21569;SDS011;57598;50.888;4.746;2022-08-06T02:47:06;28.40;;;26.80;;
21569;SDS011;57598;50.888;4.746;2022-08-06T02:49:37;29.13;;;27.42;;
21569;SDS011;57598;50.888;4.746;2022-08-06T02:52:11;29.30;;;27.60;;
21569;SDS011;57598;50.888;4.746;2022-08-06T02:54:43;30.23;;;28.42;;
21569;SDS011;57598;50.888;4.746;2022-08-06T02:57:16;29.77;;;28.08;;
21569;SDS011;57598;50.888;4.746;2022-08-06T02:59:50;29.40;;;27.70;;
21569;SDS011;57598;50.888;4.746;2022-08-06T03:02:23;29.08;;;27.38;;
21569;SDS011;57598;50.888;4.746;2022-08-06T03:07:19;29.25;;;27.55;;
21569;SDS011;57598;50.888;4.746;2022-08-06T03:09:48;29.58;;;27.88;;
21569;SDS011;57598;50.888;4.746;2022-08-06T03:12:16;30.10;;;28.35;;
21569;SDS011;57598;50.888;4.746;2022-08-06T03:14:44;30.50;;;28.70;;
21569;SDS011;57598;50.888;4.746;2022-08-06T03:17:13;30.35;;;28.58;;
21569;SDS011;57598;50.888;4.746;2022-08-06T03:19:44;29.90;;;28.20;;
21569;SDS011;57598;50.888;4.746;2022-08-06T03:22:12;30.33;;;28.52;;
21569;SDS011;57598;50.888;4.746;2022-08-06T03:24:41;30.08;;;28.38;;
21569;SDS011;57598;50.888;4.746;2022-08-06T03:27:10;29.77;;;28.08;;
21569;SDS011;57598;50.888;4.746;2022-08-06T03:29:38;29.63;;;27.92;;
21569;SDS011;57598;50.888;4.746;2022-08-06T03:32:06;31.05;;;29.25;;
21569;SDS011;57598;50.888;4.746;2022-08-06T03:34:34;30.67;;;28.88;;
21569;SDS011;57598;50.888;4.746;2022-08-06T03:37:03;30.92;;;29.13;;
21569;SDS011;57598;50.888;4.746;2022-08-06T03:39:33;30.70;;;28.90;;
21569;SDS011;57598;50.888;4.746;2022-08-06T03:42:02;30.42;;;28.63;;
21569;SDS011;57598;50.888;4.746;2022-08-06T03:44:30;30.15;;;28.42;;
21569;SDS011;57598;50.888;4.746;2022-08-06T03:46:58;29.90;;;28.20;;
21569;SDS011;57598;50.888;4.746;2022-08-06T03:49:29;30.52;;;28.73;;
21569;SDS011;57598;50.888;4.746;2022-08-06T03:52:00;30.27;;;28.58;;
21569;SDS011;57598;50.888;4.746;2022-08-06T03:54:30;29.27;;;27.58;;
21569;SDS011;57598;50.888;4.746;2022-08-06T03:57:00;29.23;;;27.52;;
21569;SDS011;57598;50.888;4.746;2022-08-06T03:59:34;30.02;;;28.23;;
21569;SDS011;57598;50.888;4.746;2022-08-06T04:02:05;30.05;;;28.35;;
21569;SDS011;57598;50.888;4.746;2022-08-06T04:04:32;30.35;;;28.55;;
21569;SDS011;57598;50.888;4.746;2022-08-06T04:07:01;30.52;;;28.73;;
21569;SDS011;57598;50.888;4.746;2022-08-06T04:09:31;29.58;;;27.88;;
21569;SDS011;57598;50.888;4.746;2022-08-06T04:11:59;29.70;;;28.00;;
21569;SDS011;57598;50.888;4.746;2022-08-06T04:14:28;30.02;;;28.25;;
21569;SDS011;57598;50.888;4.746;2022-08-06T04:16:56;30.48;;;28.67;;
21569;SDS011;57598;50.888;4.746;2022-08-06T04:19:24;30.42;;;28.63;;
21569;SDS011;57598;50.888;4.746;2022-08-06T04:21:52;29.52;;;27.83;;
21569;SDS011;57598;50.888;4.746;2022-08-06T04:24:19;29.08;;;27.38;;
21569;SDS011;57598;50.888;4.746;2022-08-06T04:26:49;28.73;;;27.13;;
21569;SDS011;57598;50.888;4.746;2022-08-06T04:29:20;29.02;;;27.38;;
21569;SDS011;57598;50.888;4.746;2022-08-06T04:31:48;29.13;;;27.52;;
21569;SDS011;57598;50.888;4.746;2022-08-06T04:34:18;28.02;;;26.42;;
21569;SDS011;57598;50.888;4.746;2022-08-06T04:39:15;28.02;;;26.42;;
21569;SDS011;57598;50.888;4.746;2022-08-06T04:41:44;27.67;;;26.17;;
21569;SDS011;57598;50.888;4.746;2022-08-06T04:44:13;27.38;;;25.88;;
21569;SDS011;57598;50.888;4.746;2022-08-06T04:46:40;27.58;;;26.08;;
21569;SDS011;57598;50.888;4.746;2022-08-06T04:49:13;28.02;;;26.48;;
21569;SDS011;57598;50.888;4.746;2022-08-06T04:51:40;27.40;;;25.90;;
21569;SDS011;57598;50.888;4.746;2022-08-06T04:54:10;28.38;;;26.77;;
21569;SDS011;57598;50.888;4.746;2022-08-06T04:56:37;28.08;;;26.58;;
21569;SDS011;57598;50.888;4.746;2022-08-06T04:59:04;28.33;;;26.73;;
21569;SDS011;57598;50.888;4.746;2022-08-06T05:01:33;27.50;;;26.00;;
21569;SDS011;57598;50.888;4.746;2022-08-06T05:04:00;27.42;;;25.92;;
21569;SDS011;57598;50.888;4.746;2022-08-06T05:06:29;27.45;;;25.95;;
21569;SDS011;57598;50.888;4.746;2022-08-06T05:09:06;26.88;;;25.38;;
21569;SDS011;57598;50.888;4.746;2022-08-06T05:11:38;27.27;;;25.77;;
21569;SDS011;57598;50.888;4.746;2022-08-06T05:14:09;27.70;;;26.20;;
21569;SDS011;57598;50.888;4.746;2022-08-06T05:16:43;27.33;;;25.83;;
21569;SDS011;57598;50.888;4.746;2022-08-06T05:19:15;27.25;;;25.75;;
21569;SDS011;57598;50.888;4.746;2022-08-06T05:21:50;27.70;;;26.20;;
21569;SDS011;57598;50.888;4.746;2022-08-06T05:24:18;27.33;;;25.83;;
21569;SDS011;57598;50.888;4.746;2022-08-06T05:26:46;27.10;;;25.60;;
21569;SDS011;57598;50.888;4.746;2022-08-06T05:29:17;27.70;;;26.20;;
21569;SDS011;57598;50.888;4.746;2022-08-06T05:31:46;26.92;;;25.42;;
21569;SDS011;57598;50.888;4.746;2022-08-06T05:34:14;26.60;;;25.10;;
21569;SDS011;57598;50.888;4.746;2022-08-06T05:36:41;27.00;;;25.50;;
21569;SDS011;57598;50.888;4.746;2022-08-06T05:39:08;27.05;;;25.55;;
21569;SDS011;57598;50.888;4.746;2022-08-06T05:41:35;26.13;;;24.73;;
21569;SDS011;57598;50.888;4.746;2022-08-06T05:44:02;25.65;;;24.25;;
21569;SDS011;57598;50.888;4.746;2022-08-06T05:46:31;24.65;;;23.33;;
21569;SDS011;57598;50.888;4.746;2022-08-06T05:49:04;23.60;;;22.30;;
21569;SDS011;57598;50.888;4.746;2022-08-06T05:51:35;22.85;;;21.55;;
21569;SDS011;57598;50.888;4.746;2022-08-06T05:54:08;21.98;;;20.77;;
21569;SDS011;57598;50.888;4.746;2022-08-06T05:56:41;21.80;;;20.60;;
21569;SDS011;57598;50.888;4.746;2022-08-06T05:59:12;21.65;;;20.45;;
21569;SDS011;57598;50.888;4.746;2022-08-06T06:01:43;21.25;;;20.05;;
21569;SDS011;57598;50.888;4.746;2022-08-06T06:04:13;20.30;;;19.20;;
21569;SDS011;57598;50.888;4.746;2022-08-06T06:06:41;20.10;;;19.00;;
21569;SDS011;57598;50.888;4.746;2022-08-06T06:09:10;20.08;;;18.98;;
21569;SDS011;57598;50.888;4.746;2022-08-06T06:11:39;19.95;;;18.85;;
21569;SDS011;57598;50.888;4.746;2022-08-06T06:14:07;19.88;;;18.77;;
21569;SDS011;57598;50.888;4.746;2022-08-06T06:16:46;20.27;;;19.17;;
21569;SDS011;57598;50.888;4.746;2022-08-06T06:19:27;20.95;;;19.75;;
21569;SDS011;57598;50.888;4.746;2022-08-06T06:22:04;20.67;;;19.48;;
21569;SDS011;57598;50.888;4.746;2022-08-06T06:24:43;19.80;;;18.70;;
21569;SDS011;57598;50.888;4.746;2022-08-06T06:27:16;20.30;;;19.20;;
21569;SDS011;57598;50.888;4.746;2022-08-06T06:29:51;20.35;;;19.25;;
21569;SDS011;57598;50.888;4.746;2022-08-06T06:32:28;20.40;;;19.30;;
21569;SDS011;57598;50.888;4.746;2022-08-06T06:35:15;19.85;;;18.75;;
21569;SDS011;57598;50.888;4.746;2022-08-06T06:37:49;19.30;;;18.20;;
21569;SDS011;57598;50.888;4.746;2022-08-06T06:40:24;19.33;;;18.23;;
21569;SDS011;57598;50.888;4.746;2022-08-06T06:43:02;19.30;;;18.20;;
21569;SDS011;57598;50.888;4.746;2022-08-06T06:45:41;18.98;;;17.88;;
21569;SDS011;57598;50.888;4.746;2022-08-06T06:48:15;19.35;;;18.25;;
21569;SDS011;57598;50.888;4.746;2022-08-06T06:50:46;19.50;;;18.40;;
21569;SDS011;57598;50.888;4.746;2022-08-06T06:53:17;19.27;;;18.17;;
21569;SDS011;57598;50.888;4.746;2022-08-06T06:55:45;19.30;;;18.20;;
21569;SDS011;57598;50.888;4.746;2022-08-06T06:58:15;19.25;;;18.15;;
21569;SDS011;57598;50.888;4.746;2022-08-06T07:00:47;19.02;;;17.92;;
21569;SDS011;57598;50.888;4.746;2022-08-06T07:03:15;18.63;;;17.52;;
21569;SDS011;57598;50.888;4.746;2022-08-06T07:05:46;19.48;;;18.38;;
21569;SDS011;57598;50.888;4.746;2022-08-06T07:08:16;18.73;;;17.63;;
21569;SDS011;57598;50.888;4.746;2022-08-06T07:10:46;18.15;;;17.15;;
21569;SDS011;57598;50.888;4.746;2022-08-06T07:13:14;18.10;;;17.10;;
21569;SDS011;57598;50.888;4.746;2022-08-06T07:15:44;18.52;;;17.45;;
21569;SDS011;57598;50.888;4.746;2022-08-06T07:18:12;18.65;;;17.58;;
21569;SDS011;57598;50.888;4.746;2022-08-06T07:20:42;17.90;;;16.90;;
21569;SDS011;57598;50.888;4.746;2022-08-06T07:23:11;17.90;;;16.90;;
21569;SDS011;57598;50.888;4.746;2022-08-06T07:25:41;19.33;;;17.90;;
21569;SDS011;57598;50.888;4.746;2022-08-06T07:28:11;19.08;;;17.98;;
21569;SDS011;57598;50.888;4.746;2022-08-06T07:30:39;18.17;;;17.17;;
21569;SDS011;57598;50.888;4.746;2022-08-06T07:33:07;18.38;;;17.38;;
21569;SDS011;57598;50.888;4.746;2022-08-06T07:35:35;18.95;;;17.85;;
21569;SDS011;57598;50.888;4.746;2022-08-06T07:38:05;17.80;;;16.80;;
21569;SDS011;57598;50.888;4.746;2022-08-06T07:40:38;18.73;;;17.63;;
21569;SDS011;57598;50.888;4.746;2022-08-06T07:43:10;17.80;;;16.80;;
21569;SDS011;57598;50.888;4.746;2022-08-06T07:45:39;19.10;;;18.00;;
21569;SDS011;57598;50.888;4.746;2022-08-06T07:48:09;18.45;;;17.42;;
21569;SDS011;57598;50.888;4.746;2022-08-06T07:50:37;18.20;;;17.20;;
21569;SDS011;57598;50.888;4.746;2022-08-06T07:53:06;17.00;;;16.00;;
21569;SDS011;57598;50.888;4.746;2022-08-06T07:55:36;17.63;;;16.63;;
21569;SDS011;57598;50.888;4.746;2022-08-06T07:58:04;17.77;;;16.77;;
21569;SDS011;57598;50.888;4.746;2022-08-06T08:00:32;17.30;;;16.30;;
21569;SDS011;57598;50.888;4.746;2022-08-06T08:03:01;17.05;;;16.05;;
21569;SDS011;57598;50.888;4.746;2022-08-06T08:05:47;17.77;;;16.77;;
21569;SDS011;57598;50.888;4.746;2022-08-06T08:08:31;16.63;;;15.63;;
21569;SDS011;57598;50.888;4.746;2022-08-06T08:11:01;17.17;;;16.17;;
21569;SDS011;57598;50.888;4.746;2022-08-06T08:13:28;16.52;;;15.52;;
21569;SDS011;57598;50.888;4.746;2022-08-06T08:15:57;17.88;;;16.75;;
21569;SDS011;57598;50.888;4.746;2022-08-06T08:18:27;17.35;;;16.35;;
21569;SDS011;57598;50.888;4.746;2022-08-06T08:20:55;17.33;;;16.03;;
21569;SDS011;57598;50.888;4.746;2022-08-06T08:23:22;18.08;;;16.95;;
21569;SDS011;57598;50.888;4.746;2022-08-06T08:25:50;17.38;;;16.38;;
21569;SDS011;57598;50.888;4.746;2022-08-06T08:28:19;18.00;;;16.95;;
21569;SDS011;57598;50.888;4.746;2022-08-06T08:30:46;17.63;;;16.52;;
21569;SDS011;57598;50.888;4.746;2022-08-06T08:33:13;17.05;;;16.05;;
21569;SDS011;57598;50.888;4.746;2022-08-06T08:35:40;17.10;;;16.10;;
21569;SDS011;57598;50.888;4.746;2022-08-06T08:38:07;17.15;;;16.15;;
21569;SDS011;57598;50.888;4.746;2022-08-06T08:40:34;17.38;;;16.38;;
21569;SDS011;57598;50.888;4.746;2022-08-06T08:43:02;18.60;;;17.55;;
21569;SDS011;57598;50.888;4.746;2022-08-06T08:45:32;17.85;;;16.85;;
21569;SDS011;57598;50.888;4.746;2022-08-06T08:48:01;17.73;;;16.63;;
21569;SDS011;57598;50.888;4.746;2022-08-06T08:50:29;17.25;;;16.25;;
21569;SDS011;57598;50.888;4.746;2022-08-06T08:52:58;16.45;;;15.45;;
21569;SDS011;57598;50.888;4.746;2022-08-06T08:55:29;15.82;;;14.93;;
21569;SDS011;57598;50.888;4.746;2022-08-06T08:57:56;16.55;;;15.55;;
21569;SDS011;57598;50.888;4.746;2022-08-06T09:00:24;16.75;;;15.75;;
21569;SDS011;57598;50.888;4.746;2022-08-06T09:02:52;17.05;;;16.05;;
21569;SDS011;57598;50.888;4.746;2022-08-06T09:05:20;17.42;;;16.38;;
21569;SDS011;57598;50.888;4.746;2022-08-06T09:07:47;16.90;;;15.90;;
21569;SDS011;57598;50.888;4.746;2022-08-06T09:10:15;17.65;;;16.65;;
21569;SDS011;57598;50.888;4.746;2022-08-06T09:12:42;19.15;;;18.05;;
21569;SDS011;57598;50.888;4.746;2022-08-06T09:15:12;18.92;;;17.83;;
21569;SDS011;57598;50.888;4.746;2022-08-06T09:17:39;19.45;;;18.35;;
21569;SDS011;57598;50.888;4.746;2022-08-06T09:20:08;19.15;;;18.05;;
21569;SDS011;57598;50.888;4.746;2022-08-06T09:22:35;18.90;;;17.80;;
21569;SDS011;57598;50.888;4.746;2022-08-06T09:25:03;18.73;;;17.63;;
21569;SDS011;57598;50.888;4.746;2022-08-06T09:27:32;18.40;;;16.98;;
21569;SDS011;57598;50.888;4.746;2022-08-06T09:30:01;18.73;;;17.55;;
21569;SDS011;57598;50.888;4.746;2022-08-06T09:32:36;18.47;;;17.40;;
21569;SDS011;57598;50.888;4.746;2022-08-06T09:35:16;17.02;;;16.02;;
21569;SDS011;57598;50.888;4.746;2022-08-06T09:37:44;17.70;;;16.70;;
21569;SDS011;57598;50.888;4.746;2022-08-06T09:40:12;17.05;;;16.05;;
21569;SDS011;57598;50.888;4.746;2022-08-06T09:42:40;17.25;;;16.25;;
21569;SDS011;57598;50.888;4.746;2022-08-06T09:45:10;16.48;;;15.48;;
21569;SDS011;57598;50.888;4.746;2022-08-06T09:47:38;18.38;;;17.35;;
21569;SDS011;57598;50.888;4.746;2022-08-06T09:50:06;17.50;;;16.50;;
21569;SDS011;57598;50.888;4.746;2022-08-06T09:52:35;17.90;;;16.80;;
21569;SDS011;57598;50.888;4.746;2022-08-06T09:55:02;19.10;;;18.00;;
21569;SDS011;57598;50.888;4.746;2022-08-06T09:57:40;18.80;;;17.70;;
21569;SDS011;57598;50.888;4.746;2022-08-06T10:00:09;18.02;;;16.98;;
21569;SDS011;57598;50.888;4.746;2022-08-06T10:02:37;18.17;;;17.17;;
21569;SDS011;57598;50.888;4.746;2022-08-06T10:05:07;17.77;;;16.77;;
21569;SDS011;57598;50.888;4.746;2022-08-06T10:07:37;21.52;;;19.60;;
21569;SDS011;57598;50.888;4.746;2022-08-06T10:10:05;18.10;;;17.10;;
21569;SDS011;57598;50.888;4.746;2022-08-06T10:12:33;17.20;;;16.20;;
21569;SDS011;57598;50.888;4.746;2022-08-06T10:15:00;16.95;;;15.95;;
21569;SDS011;57598;50.888;4.746;2022-08-06T10:17:27;18.25;;;17.25;;
21569;SDS011;57598;50.888;4.746;2022-08-06T10:20:04;17.83;;;16.83;;
21569;SDS011;57598;50.888;4.746;2022-08-06T10:22:32;18.73;;;17.63;;
21569;SDS011;57598;50.888;4.746;2022-08-06T10:25:03;17.25;;;16.25;;
21569;SDS011;57598;50.888;4.746;2022-08-06T10:27:32;18.27;;;17.23;;
21569;SDS011;57598;50.888;4.746;2022-08-06T10:30:01;18.60;;;17.50;;
21569;SDS011;57598;50.888;4.746;2022-08-06T10:32:36;17.83;;;16.80;;
21569;SDS011;57598;50.888;4.746;2022-08-06T10:35:08;17.65;;;16.65;;
21569;SDS011;57598;50.888;4.746;2022-08-06T10:37:37;17.75;;;16.75;;
21569;SDS011;57598;50.888;4.746;2022-08-06T10:40:08;17.77;;;16.77;;
21569;SDS011;57598;50.888;4.746;2022-08-06T10:42:39;17.90;;;16.90;;
21569;SDS011;57598;50.888;4.746;2022-08-06T10:45:06;17.88;;;16.88;;
21569;SDS011;57598;50.888;4.746;2022-08-06T10:47:35;18.38;;;17.27;;
21569;SDS011;57598;50.888;4.746;2022-08-06T10:50:03;18.75;;;17.65;;
21569;SDS011;57598;50.888;4.746;2022-08-06T10:52:31;18.42;;;17.23;;
21569;SDS011;57598;50.888;4.746;2022-08-06T10:55:00;19.58;;;18.48;;
21569;SDS011;57598;50.888;4.746;2022-08-06T10:57:31;17.42;;;16.27;;
21569;SDS011;57598;50.888;4.746;2022-08-06T10:59:58;18.27;;;17.27;;
21569;SDS011;57598;50.888;4.746;2022-08-06T11:02:28;19.00;;;17.90;;
21569;SDS011;57598;50.888;4.746;2022-08-06T11:05:02;18.25;;;17.15;;
21569;SDS011;57598;50.888;4.746;2022-08-06T11:10:43;17.65;;;16.65;;
21569;SDS011;57598;50.888;4.746;2022-08-06T11:13:37;18.13;;;17.13;;
21569;SDS011;57598;50.888;4.746;2022-08-06T11:16:24;18.30;;;17.20;;
21569;SDS011;57598;50.888;4.746;2022-08-06T11:18:58;17.65;;;16.65;;
21569;SDS011;57598;50.888;4.746;2022-08-06T11:21:38;18.73;;;17.63;;
21569;SDS011;57598;50.888;4.746;2022-08-06T11:24:06;18.50;;;17.30;;
21569;SDS011;57598;50.888;4.746;2022-08-06T11:26:35;18.23;;;17.23;;
21569;SDS011;57598;50.888;4.746;2022-08-06T11:29:04;18.33;;;17.30;;
21569;SDS011;57598;50.888;4.746;2022-08-06T11:31:33;18.30;;;17.30;;
21569;SDS011;57598;50.888;4.746;2022-08-06T11:34:03;18.00;;;17.00;;
21569;SDS011;57598;50.888;4.746;2022-08-06T11:39:26;17.88;;;16.88;;
21569;SDS011;57598;50.888;4.746;2022-08-06T11:41:55;18.20;;;17.20;;
21569;SDS011;57598;50.888;4.746;2022-08-06T11:44:26;18.02;;;17.02;;
21569;SDS011;57598;50.888;4.746;2022-08-06T11:49:35;18.67;;;17.58;;
21569;SDS011;57598;50.888;4.746;2022-08-06T11:52:04;18.52;;;17.42;;
21569;SDS011;57598;50.888;4.746;2022-08-06T11:54:31;18.65;;;17.55;;
21569;SDS011;57598;50.888;4.746;2022-08-06T11:57:22;19.27;;;18.05;;
21569;SDS011;57598;50.888;4.746;2022-08-06T12:02:48;18.98;;;17.88;;
21569;SDS011;57598;50.888;4.746;2022-08-06T12:05:36;17.88;;;16.88;;
21569;SDS011;57598;50.888;4.746;2022-08-06T12:08:13;19.05;;;17.95;;
21569;SDS011;57598;50.888;4.746;2022-08-06T12:13:44;17.90;;;16.90;;
21569;SDS011;57598;50.888;4.746;2022-08-06T12:16:26;18.42;;;17.38;;
21569;SDS011;57598;50.888;4.746;2022-08-06T12:18:53;18.70;;;17.60;;
21569;SDS011;57598;50.888;4.746;2022-08-06T12:21:21;18.05;;;17.00;;
21569;SDS011;57598;50.888;4.746;2022-08-06T12:23:49;18.02;;;16.92;;
21569;SDS011;57598;50.888;4.746;2022-08-06T12:26:17;18.13;;;17.02;;
21569;SDS011;57598;50.888;4.746;2022-08-06T12:28:45;19.45;;;18.25;;
21569;SDS011;57598;50.888;4.746;2022-08-06T12:31:12;18.80;;;17.70;;
21569;SDS011;57598;50.888;4.746;2022-08-06T12:33:41;17.80;;;16.80;;
21569;SDS011;57598;50.888;4.746;2022-08-06T12:36:09;19.30;;;18.00;;
21569;SDS011;57598;50.888;4.746;2022-08-06T12:38:36;17.55;;;16.55;;
21569;SDS011;57598;50.888;4.746;2022-08-06T12:41:03;18.50;;;17.40;;
21569;SDS011;57598;50.888;4.746;2022-08-06T12:43:32;19.15;;;17.17;;
21569;SDS011;57598;50.888;4.746;2022-08-06T12:46:01;16.85;;;15.85;;
21569;SDS011;57598;50.888;4.746;2022-08-06T12:48:30;17.20;;;16.20;;
21569;SDS011;57598;50.888;4.746;2022-08-06T12:51:05;18.02;;;17.02;;
21569;SDS011;57598;50.888;4.746;2022-08-06T12:53:36;17.20;;;16.20;;
21569;SDS011;57598;50.888;4.746;2022-08-06T12:56:06;19.92;;;18.45;;
21569;SDS011;57598;50.888;4.746;2022-08-06T12:58:42;18.05;;;16.85;;
21569;SDS011;57598;50.888;4.746;2022-08-06T13:01:11;18.30;;;17.20;;
21569;SDS011;57598;50.888;4.746;2022-08-06T13:03:41;18.65;;;17.55;;
21569;SDS011;57598;50.888;4.746;2022-08-06T13:06:13;18.45;;;17.25;;
21569;SDS011;57598;50.888;4.746;2022-08-06T13:08:43;18.20;;;17.20;;
21569;SDS011;57598;50.888;4.746;2022-08-06T13:11:15;18.17;;;17.17;;
21569;SDS011;57598;50.888;4.746;2022-08-06T13:13:45;18.70;;;17.60;;
21569;SDS011;57598;50.888;4.746;2022-08-06T13:16:15;18.80;;;17.70;;
21569;SDS011;57598;50.888;4.746;2022-08-06T13:18:43;20.30;;;18.20;;
21569;SDS011;57598;50.888;4.746;2022-08-06T13:21:31;18.63;;;17.52;;
21569;SDS011;57598;50.888;4.746;2022-08-06T13:24:01;17.52;;;16.52;;
21569;SDS011;57598;50.888;4.746;2022-08-06T13:26:29;19.20;;;18.10;;
21569;SDS011;57598;50.888;4.746;2022-08-06T13:29:07;19.23;;;18.13;;
21569;SDS011;57598;50.888;4.746;2022-08-06T13:31:37;20.27;;;18.77;;
21569;SDS011;57598;50.888;4.746;2022-08-06T13:34:06;18.60;;;17.50;;
21569;SDS011;57598;50.888;4.746;2022-08-06T13:36:36;18.08;;;17.08;;
21569;SDS011;57598;50.888;4.746;2022-08-06T13:39:18;19.05;;;17.95;;
21569;SDS011;57598;50.888;4.746;2022-08-06T13:41:46;17.83;;;16.83;;
21569;SDS011;57598;50.888;4.746;2022-08-06T13:44:26;18.42;;;17.35;;
21569;SDS011;57598;50.888;4.746;2022-08-06T13:46:54;18.10;;;17.10;;
21569;SDS011;57598;50.888;4.746;2022-08-06T13:49:21;18.63;;;17.52;;
21569;SDS011;57598;50.888;4.746;2022-08-06T13:51:49;18.73;;;17.63;;
21569;SDS011;57598;50.888;4.746;2022-08-06T13:54:16;18.27;;;17.25;;
21569;SDS011;57598;50.888;4.746;2022-08-06T13:56:43;20.13;;;18.45;;
21569;SDS011;57598;50.888;4.746;2022-08-06T13:59:10;19.40;;;18.20;;
21569;SDS011;57598;50.888;4.746;2022-08-06T14:01:37;19.15;;;18.00;;
21569;SDS011;57598;50.888;4.746;2022-08-06T14:04:03;18.40;;;17.30;;
21569;SDS011;57598;50.888;4.746;2022-08-06T14:06:30;18.75;;;17.55;;
21569;SDS011;57598;50.888;4.746;2022-08-06T14:08:59;20.13;;;18.92;;
21569;SDS011;57598;50.888;4.746;2022-08-06T14:11:26;19.40;;;18.30;;
21569;SDS011;57598;50.888;4.746;2022-08-06T14:13:53;19.65;;;18.55;;
21569;SDS011;57598;50.888;4.746;2022-08-06T14:16:20;20.17;;;18.98;;
21569;SDS011;57598;50.888;4.746;2022-08-06T14:18:47;18.08;;;17.08;;
21569;SDS011;57598;50.888;4.746;2022-08-06T14:21:14;19.90;;;18.70;;
21569;SDS011;57598;50.888;4.746;2022-08-06T14:23:41;19.08;;;17.98;;
21569;SDS011;57598;50.888;4.746;2022-08-06T14:26:09;17.92;;;16.92;;
21569;SDS011;57598;50.888;4.746;2022-08-06T14:28:36;19.55;;;18.45;;
21569;SDS011;57598;50.888;4.746;2022-08-06T14:31:03;19.77;;;18.67;;
21569;SDS011;57598;50.888;4.746;2022-08-06T14:33:31;19.20;;;18.10;;
21569;SDS011;57598;50.888;4.746;2022-08-06T14:35:57;20.65;;;19.20;;
21569;SDS011;57598;50.888;4.746;2022-08-06T14:38:24;19.80;;;18.58;;
21569;SDS011;57598;50.888;4.746;2022-08-06T14:40:51;18.30;;;17.20;;
21569;SDS011;57598;50.888;4.746;2022-08-06T14:43:37;17.83;;;16.83;;
21569;SDS011;57598;50.888;4.746;2022-08-06T14:46:21;18.40;;;17.30;;
21569;SDS011;57598;50.888;4.746;2022-08-06T14:48:49;17.67;;;16.67;;
21569;SDS011;57598;50.888;4.746;2022-08-06T14:51:19;17.38;;;16.38;;
21569;SDS011;57598;50.888;4.746;2022-08-06T14:53:46;18.73;;;17.53;;
21569;SDS011;57598;50.888;4.746;2022-08-06T14:56:13;19.15;;;17.95;;
21569;SDS011;57598;50.888;4.746;2022-08-06T14:58:42;18.80;;;17.70;;